sensor_id;sensor_type;location;lat;lon;timestamp;pressure;altitude;pressure_sealevel;temperature;humidity
47763;BME280;33526;42.690;23.322;2023-04-22T00:00:20;94747.13;;;9.68;74.63
47763;BME280;33526;42.690;23.322;2023-04-22T00:02:45;94710.28;;;9.45;74.95
47763;BME280;33526;42.690;23.322;2023-04-22T00:05:10;94738.94;;;9.64;75.28
47763;BME280;33526;42.690;23.322;2023-04-22T00:07:38;94749.16;;;9.67;75.39
47763;BME280;33526;42.690;23.322;2023-04-22T00:10:05;94758.00;;;9.66;75.76
47763;BME280;33526;42.690;23.322;2023-04-22T00:12:30;94743.91;;;9.60;75.91
47763;BME280;33526;42.690;23.322;2023-04-22T00:14:56;94719.28;;;9.49;76.19
47763;BME280;33526;42.690;23.322;2023-04-22T00:17:21;94740.31;;;9.60;75.81
47763;BME280;33526;42.690;23.322;2023-04-22T00:19:46;94730.00;;;9.51;76.64
47763;BME280;33526;42.690;23.322;2023-04-22T00:22:12;94743.44;;;9.52;76.54
47763;BME280;33526;42.690;23.322;2023-04-22T00:24:37;94737.69;;;9.56;76.76
47763;BME280;33526;42.690;23.322;2023-04-22T00:27:03;94751.66;;;9.65;76.46
47763;BME280;33526;42.690;23.322;2023-04-22T00:29:28;94755.34;;;9.71;76.18
47763;BME280;33526;42.690;23.322;2023-04-22T00:31:54;94752.41;;;9.66;76.20
47763;BME280;33526;42.690;23.322;2023-04-22T00:34:19;94749.81;;;9.53;76.93
47763;BME280;33526;42.690;23.322;2023-04-22T00:36:45;94738.84;;;9.31;77.70
47763;BME280;33526;42.690;23.322;2023-04-22T00:39:11;94745.44;;;9.09;79.38
47763;BME280;33526;42.690;23.322;2023-04-22T00:41:38;94752.25;;;8.99;80.04
47763;BME280;33526;42.690;23.322;2023-04-22T00:44:04;94767.41;;;8.98;80.86
47763;BME280;33526;42.690;23.322;2023-04-22T00:46:32;94759.38;;;9.00;80.91
47763;BME280;33526;42.690;23.322;2023-04-22T00:48:58;94729.50;;;8.73;81.69
47763;BME280;33526;42.690;23.322;2023-04-22T00:51:24;94755.94;;;9.05;81.44
47763;BME280;33526;42.690;23.322;2023-04-22T00:53:50;94760.91;;;9.01;81.49
47763;BME280;33526;42.690;23.322;2023-04-22T00:56:16;94769.13;;;8.95;81.28
47763;BME280;33526;42.690;23.322;2023-04-22T00:58:42;94769.31;;;8.83;81.92
47763;BME280;33526;42.690;23.322;2023-04-22T01:01:07;94767.59;;;8.67;82.31
47763;BME280;33526;42.690;23.322;2023-04-22T01:03:35;94763.69;;;8.64;82.08
47763;BME280;33526;42.690;23.322;2023-04-22T01:06:02;94775.19;;;8.66;81.92
47763;BME280;33526;42.690;23.322;2023-04-22T01:08:28;94745.72;;;8.37;82.76
47763;BME280;33526;42.690;23.322;2023-04-22T01:10:56;94759.06;;;8.52;82.43
47763;BME280;33526;42.690;23.322;2023-04-22T01:13:22;94775.44;;;8.50;81.52
47763;BME280;33526;42.690;23.322;2023-04-22T01:15:49;94772.31;;;8.29;83.01
47763;BME280;33526;42.690;23.322;2023-04-22T01:18:15;94771.69;;;8.34;83.06
47763;BME280;33526;42.690;23.322;2023-04-22T01:20:40;94766.28;;;8.31;83.33
47763;BME280;33526;42.690;23.322;2023-04-22T01:23:13;94764.56;;;8.33;83.16
47763;BME280;33526;42.690;23.322;2023-04-22T01:25:41;94751.91;;;8.41;82.65
47763;BME280;33526;42.690;23.322;2023-04-22T01:28:06;94766.19;;;8.53;82.48
47763;BME280;33526;42.690;23.322;2023-04-22T01:30:32;94770.22;;;8.61;82.37
47763;BME280;33526;42.690;23.322;2023-04-22T01:32:58;94757.34;;;8.54;82.39
47763;BME280;33526;42.690;23.322;2023-04-22T01:35:24;94766.47;;;8.64;81.88
47763;BME280;33526;42.690;23.322;2023-04-22T01:37:50;94769.28;;;8.64;82.05
47763;BME280;33526;42.690;23.322;2023-04-22T01:40:15;94759.69;;;8.56;82.32
47763;BME280;33526;42.690;23.322;2023-04-22T01:42:44;94762.47;;;8.65;82.43
47763;BME280;33526;42.690;23.322;2023-04-22T01:45:10;94745.75;;;8.47;82.22
47763;BME280;33526;42.690;23.322;2023-04-22T01:47:37;94761.22;;;8.57;82.75
47763;BME280;33526;42.690;23.322;2023-04-22T01:50:02;94762.63;;;8.61;82.86
47763;BME280;33526;42.690;23.322;2023-04-22T01:52:29;94763.09;;;8.69;82.33
47763;BME280;33526;42.690;23.322;2023-04-22T01:54:54;94753.66;;;8.76;81.65
47763;BME280;33526;42.690;23.322;2023-04-22T01:57:20;94759.38;;;8.82;81.61
47763;BME280;33526;42.690;23.322;2023-04-22T01:59:45;94770.22;;;8.89;80.54
47763;BME280;33526;42.690;23.322;2023-04-22T02:02:11;94768.03;;;8.84;80.43
47763;BME280;33526;42.690;23.322;2023-04-22T02:04:36;94752.88;;;8.75;80.74
47763;BME280;33526;42.690;23.322;2023-04-22T02:07:02;94770.97;;;8.89;80.43
47763;BME280;33526;42.690;23.322;2023-04-22T02:09:27;94760.63;;;8.80;80.45
47763;BME280;33526;42.690;23.322;2023-04-22T02:11:52;94749.47;;;8.62;80.57
47763;BME280;33526;42.690;23.322;2023-04-22T02:14:18;94772.69;;;8.68;80.35
47763;BME280;33526;42.690;23.322;2023-04-22T02:16:44;94756.59;;;8.63;80.51
47763;BME280;33526;42.690;23.322;2023-04-22T02:19:10;94768.66;;;8.78;80.31
47763;BME280;33526;42.690;23.322;2023-04-22T02:21:35;94766.47;;;8.55;80.45
47763;BME280;33526;42.690;23.322;2023-04-22T02:24:01;94746.38;;;8.51;80.56
47763;BME280;33526;42.690;23.322;2023-04-22T02:26:26;94756.28;;;8.70;79.82
47763;BME280;33526;42.690;23.322;2023-04-22T02:28:52;94768.66;;;8.78;79.60
47763;BME280;33526;42.690;23.322;2023-04-22T02:31:17;94773.31;;;8.72;79.77
47763;BME280;33526;42.690;23.322;2023-04-22T02:33:43;94760.28;;;8.60;80.02
47763;BME280;33526;42.690;23.322;2023-04-22T02:36:08;94753.34;;;8.55;80.29
47763;BME280;33526;42.690;23.322;2023-04-22T02:38:33;94736.13;;;8.48;79.62
47763;BME280;33526;42.690;23.322;2023-04-22T02:40:59;94775.19;;;8.66;79.18
47763;BME280;33526;42.690;23.322;2023-04-22T02:43:24;94774.09;;;8.64;78.84
47763;BME280;33526;42.690;23.322;2023-04-22T02:45:50;94769.91;;;8.59;79.00
47763;BME280;33526;42.690;23.322;2023-04-22T02:48:15;94776.09;;;8.63;79.23
47763;BME280;33526;42.690;23.322;2023-04-22T02:50:41;94780.44;;;8.73;78.58
47763;BME280;33526;42.690;23.322;2023-04-22T02:53:07;94779.81;;;8.78;78.02
47763;BME280;33526;42.690;23.322;2023-04-22T02:55:33;94784.78;;;8.84;78.13
47763;BME280;33526;42.690;23.322;2023-04-22T02:57:58;94778.28;;;8.87;77.85
47763;BME280;33526;42.690;23.322;2023-04-22T03:00:24;94781.38;;;8.89;77.48
47763;BME280;33526;42.690;23.322;2023-04-22T03:02:49;94762.00;;;8.85;76.87
47763;BME280;33526;42.690;23.322;2023-04-22T03:05:14;94781.97;;;8.84;77.39
47763;BME280;33526;42.690;23.322;2023-04-22T03:07:40;94784.00;;;8.74;77.86
47763;BME280;33526;42.690;23.322;2023-04-22T03:10:06;94778.13;;;8.72;78.32
47763;BME280;33526;42.690;23.322;2023-04-22T03:12:32;94764.34;;;8.59;78.23
47763;BME280;33526;42.690;23.322;2023-04-22T03:14:57;94784.00;;;8.65;78.25
47763;BME280;33526;42.690;23.322;2023-04-22T03:17:23;94791.75;;;8.70;78.47
47763;BME280;33526;42.690;23.322;2023-04-22T03:19:50;94781.06;;;8.68;78.66
47763;BME280;33526;42.690;23.322;2023-04-22T03:22:15;94795.31;;;8.61;78.84
47763;BME280;33526;42.690;23.322;2023-04-22T03:24:41;94774.53;;;8.44;79.13
47763;BME280;33526;42.690;23.322;2023-04-22T03:27:06;94783.19;;;8.46;79.86
47763;BME280;33526;42.690;23.322;2023-04-22T03:29:31;94792.81;;;8.54;79.68
47763;BME280;33526;42.690;23.322;2023-04-22T03:31:57;94777.44;;;8.40;79.80
47763;BME280;33526;42.690;23.322;2023-04-22T03:34:22;94766.13;;;8.34;79.69
47763;BME280;33526;42.690;23.322;2023-04-22T03:36:47;94793.09;;;8.47;79.86
47763;BME280;33526;42.690;23.322;2023-04-22T03:39:13;94792.13;;;8.40;80.12
47763;BME280;33526;42.690;23.322;2023-04-22T03:41:38;94800.06;;;8.42;80.07
47763;BME280;33526;42.690;23.322;2023-04-22T03:44:04;94803.94;;;8.45;80.22
47763;BME280;33526;42.690;23.322;2023-04-22T03:46:29;94800.69;;;8.46;80.27
47763;BME280;33526;42.690;23.322;2023-04-22T03:48:55;94805.50;;;8.64;79.94
47763;BME280;33526;42.690;23.322;2023-04-22T03:51:20;94761.47;;;8.40;79.35
47763;BME280;33526;42.690;23.322;2023-04-22T03:53:46;94807.53;;;8.73;79.67
47763;BME280;33526;42.690;23.322;2023-04-22T03:56:11;94799.00;;;8.67;80.28
47763;BME280;33526;42.690;23.322;2023-04-22T03:58:37;94819.94;;;8.81;80.50
47763;BME280;33526;42.690;23.322;2023-04-22T04:01:02;94821.31;;;8.86;80.36
47763;BME280;33526;42.690;23.322;2023-04-22T04:03:27;94774.19;;;8.41;80.20
47763;BME280;33526;42.690;23.322;2023-04-22T04:05:53;94811.72;;;8.68;81.03
47763;BME280;33526;42.690;23.322;2023-04-22T04:08:18;94816.84;;;8.79;80.54
47763;BME280;33526;42.690;23.322;2023-04-22T04:10:44;94825.38;;;8.94;79.72
47763;BME280;33526;42.690;23.322;2023-04-22T04:13:09;94817.47;;;9.02;78.84
47763;BME280;33526;42.690;23.322;2023-04-22T04:15:35;94817.63;;;8.98;78.48
47763;BME280;33526;42.690;23.322;2023-04-22T04:18:01;94822.56;;;9.03;78.61
47763;BME280;33526;42.690;23.322;2023-04-22T04:20:28;94808.47;;;9.07;78.17
47763;BME280;33526;42.690;23.322;2023-04-22T04:22:54;94821.66;;;9.15;78.13
47763;BME280;33526;42.690;23.322;2023-04-22T04:25:19;94833.56;;;9.53;77.21
47763;BME280;33526;42.690;23.322;2023-04-22T04:27:47;94830.78;;;10.05;75.54
47763;BME280;33526;42.690;23.322;2023-04-22T04:30:14;94818.22;;;10.43;73.25
47763;BME280;33526;42.690;23.322;2023-04-22T04:32:40;94813.75;;;10.60;70.31
47763;BME280;33526;42.690;23.322;2023-04-22T04:35:07;94821.97;;;10.88;68.90
47763;BME280;33526;42.690;23.322;2023-04-22T04:37:32;94836.38;;;10.96;68.28
47763;BME280;33526;42.690;23.322;2023-04-22T04:39:58;94842.00;;;11.10;68.01
47763;BME280;33526;42.690;23.322;2023-04-22T04:42:24;94844.22;;;11.06;67.55
47763;BME280;33526;42.690;23.322;2023-04-22T04:44:50;94847.56;;;10.96;67.96
47763;BME280;33526;42.690;23.322;2023-04-22T04:47:16;94840.72;;;10.73;68.47
47763;BME280;33526;42.690;23.322;2023-04-22T04:49:41;94857.72;;;10.84;68.12
47763;BME280;33526;42.690;23.322;2023-04-22T04:52:07;94867.13;;;11.20;67.72
47763;BME280;33526;42.690;23.322;2023-04-22T04:54:36;94837.44;;;10.98;66.73
47763;BME280;33526;42.690;23.322;2023-04-22T04:57:01;94866.38;;;11.34;66.06
47763;BME280;33526;42.690;23.322;2023-04-22T04:59:27;94871.84;;;11.53;65.57
47763;BME280;33526;42.690;23.322;2023-04-22T05:01:53;94868.97;;;11.77;64.36
47763;BME280;33526;42.690;23.322;2023-04-22T05:04:18;94867.72;;;12.22;63.07
47763;BME280;33526;42.690;23.322;2023-04-22T05:06:44;94865.53;;;12.27;62.14
47763;BME280;33526;42.690;23.322;2023-04-22T05:09:09;94843.31;;;11.93;62.78
47763;BME280;33526;42.690;23.322;2023-04-22T05:11:34;94841.06;;;12.27;62.01
47763;BME280;33526;42.690;23.322;2023-04-22T05:14:01;94882.28;;;12.71;61.68
47763;BME280;33526;42.690;23.322;2023-04-22T05:16:27;94876.63;;;13.07;59.78
47763;BME280;33526;42.690;23.322;2023-04-22T05:18:53;94865.03;;;13.19;59.04
47763;BME280;33526;42.690;23.322;2023-04-22T05:21:18;94872.72;;;13.39;58.58
47763;BME280;33526;42.690;23.322;2023-04-22T05:23:44;94877.47;;;13.54;58.50
47763;BME280;33526;42.690;23.322;2023-04-22T05:26:10;94869.63;;;13.37;58.44
47763;BME280;33526;42.690;23.322;2023-04-22T05:28:35;94879.69;;;12.88;60.09
47763;BME280;33526;42.690;23.322;2023-04-22T05:31:01;94878.59;;;12.65;60.45
47763;BME280;33526;42.690;23.322;2023-04-22T05:33:26;94862.13;;;12.73;60.16
47763;BME280;33526;42.690;23.322;2023-04-22T05:35:52;94873.44;;;12.43;60.53
47763;BME280;33526;42.690;23.322;2023-04-22T05:38:17;94874.41;;;12.25;61.58
47763;BME280;33526;42.690;23.322;2023-04-22T05:40:43;94857.63;;;12.60;60.63
47763;BME280;33526;42.690;23.322;2023-04-22T05:43:08;94877.28;;;12.60;60.49
47763;BME280;33526;42.690;23.322;2023-04-22T05:45:34;94878.03;;;12.61;60.61
47763;BME280;33526;42.690;23.322;2023-04-22T05:47:59;94889.78;;;12.45;61.40
47763;BME280;33526;42.690;23.322;2023-04-22T05:50:26;94873.66;;;12.24;61.86
47763;BME280;33526;42.690;23.322;2023-04-22T05:52:51;94884.63;;;11.83;63.30
47763;BME280;33526;42.690;23.322;2023-04-22T05:55:17;94878.03;;;11.72;64.09
47763;BME280;33526;42.690;23.322;2023-04-22T05:57:42;94882.06;;;11.56;64.86
47763;BME280;33526;42.690;23.322;2023-04-22T06:00:08;94882.69;;;11.60;65.86
47763;BME280;33526;42.690;23.322;2023-04-22T06:02:34;94879.88;;;11.60;64.76
47763;BME280;33526;42.690;23.322;2023-04-22T06:04:59;94869.25;;;11.64;64.91
47763;BME280;33526;42.690;23.322;2023-04-22T06:07:25;94854.69;;;11.60;64.30
47763;BME280;33526;42.690;23.322;2023-04-22T06:09:50;94881.94;;;11.74;64.54
47763;BME280;33526;42.690;23.322;2023-04-22T06:12:17;94874.19;;;11.69;64.43
47763;BME280;33526;42.690;23.322;2023-04-22T06:14:43;94882.78;;;11.65;65.04
47763;BME280;33526;42.690;23.322;2023-04-22T06:17:08;94882.78;;;11.80;65.95
47763;BME280;33526;42.690;23.322;2023-04-22T06:19:34;94872.53;;;11.77;64.54
47763;BME280;33526;42.690;23.322;2023-04-22T06:21:59;94867.47;;;11.91;64.26
47763;BME280;33526;42.690;23.322;2023-04-22T06:24:25;94871.19;;;11.88;63.98
47763;BME280;33526;42.690;23.322;2023-04-22T06:26:50;94871.69;;;12.01;63.85
47763;BME280;33526;42.690;23.322;2023-04-22T06:29:16;94886.59;;;12.07;63.71
47763;BME280;33526;42.690;23.322;2023-04-22T06:31:41;94891.41;;;11.92;63.92
47763;BME280;33526;42.690;23.322;2023-04-22T06:34:06;94883.28;;;11.94;63.85
47763;BME280;33526;42.690;23.322;2023-04-22T06:36:32;94891.22;;;11.95;64.13
47763;BME280;33526;42.690;23.322;2023-04-22T06:39:02;94900.88;;;11.79;64.76
47763;BME280;33526;42.690;23.322;2023-04-22T06:41:30;94875.53;;;11.74;64.67
47763;BME280;33526;42.690;23.322;2023-04-22T06:43:55;94886.53;;;11.77;64.65
47763;BME280;33526;42.690;23.322;2023-04-22T06:46:20;94883.44;;;11.60;65.21
47763;BME280;33526;42.690;23.322;2023-04-22T06:48:46;94862.19;;;11.54;65.31
47763;BME280;33526;42.690;23.322;2023-04-22T06:51:11;94882.13;;;11.85;64.83
47763;BME280;33526;42.690;23.322;2023-04-22T06:53:37;94887.66;;;11.95;64.74
47763;BME280;33526;42.690;23.322;2023-04-22T06:56:03;94882.34;;;12.27;63.79
47763;BME280;33526;42.690;23.322;2023-04-22T06:58:28;94885.22;;;12.47;63.48
47763;BME280;33526;42.690;23.322;2023-04-22T07:00:54;94895.47;;;12.50;63.22
47763;BME280;33526;42.690;23.322;2023-04-22T07:03:19;94894.28;;;12.42;63.44
47763;BME280;33526;42.690;23.322;2023-04-22T07:05:45;94874.38;;;12.40;63.15
47763;BME280;33526;42.690;23.322;2023-04-22T07:08:12;94892.56;;;12.45;63.02
47763;BME280;33526;42.690;23.322;2023-04-22T07:10:38;94898.25;;;12.50;62.94
47763;BME280;33526;42.690;23.322;2023-04-22T07:13:03;94878.91;;;12.52;62.86
47763;BME280;33526;42.690;23.322;2023-04-22T07:15:29;94872.81;;;12.54;62.90
47763;BME280;33526;42.690;23.322;2023-04-22T07:17:54;94894.09;;;12.60;63.16
47763;BME280;33526;42.690;23.322;2023-04-22T07:20:20;94897.19;;;12.62;62.86
47763;BME280;33526;42.690;23.322;2023-04-22T07:22:45;94862.91;;;12.73;62.48
47763;BME280;33526;42.690;23.322;2023-04-22T07:25:11;94890.66;;;13.07;61.99
47763;BME280;33526;42.690;23.322;2023-04-22T07:27:36;94895.94;;;13.19;61.92
47763;BME280;33526;42.690;23.322;2023-04-22T07:30:04;94884.28;;;13.06;61.49
47763;BME280;33526;42.690;23.322;2023-04-22T07:32:30;94867.38;;;13.21;61.06
47763;BME280;33526;42.690;23.322;2023-04-22T07:34:56;94894.84;;;13.32;61.00
47763;BME280;33526;42.690;23.322;2023-04-22T07:37:21;94882.22;;;13.42;60.77
47763;BME280;33526;42.690;23.322;2023-04-22T07:39:47;94895.75;;;13.44;60.33
47763;BME280;33526;42.690;23.322;2023-04-22T07:42:12;94894.47;;;13.24;61.17
47763;BME280;33526;42.690;23.322;2023-04-22T07:44:38;94874.81;;;13.24;60.75
47763;BME280;33526;42.690;23.322;2023-04-22T07:47:03;94883.09;;;13.54;59.93
47763;BME280;33526;42.690;23.322;2023-04-22T07:49:29;94870.19;;;13.62;59.24
47763;BME280;33526;42.690;23.322;2023-04-22T07:51:55;94897.56;;;13.67;57.63
47763;BME280;33526;42.690;23.322;2023-04-22T07:54:20;94825.31;;;13.27;57.35
47763;BME280;33526;42.690;23.322;2023-04-22T07:56:46;94886.81;;;13.66;57.20
47763;BME280;33526;42.690;23.322;2023-04-22T07:59:11;94887.00;;;13.83;56.97
47763;BME280;33526;42.690;23.322;2023-04-22T08:01:37;94886.44;;;13.79;57.07
47763;BME280;33526;42.690;23.322;2023-04-22T08:04:02;94871.31;;;13.70;57.54
47763;BME280;33526;42.690;23.322;2023-04-22T08:06:28;94879.50;;;14.00;56.10
47763;BME280;33526;42.690;23.322;2023-04-22T08:08:53;94877.75;;;14.03;56.15
47763;BME280;33526;42.690;23.322;2023-04-22T08:11:19;94865.91;;;14.19;55.67
47763;BME280;33526;42.690;23.322;2023-04-22T08:13:44;94873.66;;;14.30;54.67
47763;BME280;33526;42.690;23.322;2023-04-22T08:16:10;94871.28;;;14.54;54.00
47763;BME280;33526;42.690;23.322;2023-04-22T08:18:35;94873.38;;;14.60;53.58
47763;BME280;33526;42.690;23.322;2023-04-22T08:21:01;94874.53;;;14.47;53.30
47763;BME280;33526;42.690;23.322;2023-04-22T08:23:26;94841.44;;;14.31;53.09
47763;BME280;33526;42.690;23.322;2023-04-22T08:25:52;94870.00;;;14.24;54.50
47763;BME280;33526;42.690;23.322;2023-04-22T08:28:17;94876.88;;;14.17;53.67
47763;BME280;33526;42.690;23.322;2023-04-22T08:30:43;94868.03;;;14.30;53.51
47763;BME280;33526;42.690;23.322;2023-04-22T08:33:08;94865.91;;;14.57;53.33
47763;BME280;33526;42.690;23.322;2023-04-22T08:35:34;94852.91;;;14.27;53.30
47763;BME280;33526;42.690;23.322;2023-04-22T08:38:00;94841.47;;;14.68;52.29
47763;BME280;33526;42.690;23.322;2023-04-22T08:40:26;94862.34;;;14.94;52.19
47763;BME280;33526;42.690;23.322;2023-04-22T08:42:52;94855.03;;;15.07;51.53
47763;BME280;33526;42.690;23.322;2023-04-22T08:45:19;94841.00;;;15.24;50.37
47763;BME280;33526;42.690;23.322;2023-04-22T08:47:46;94850.94;;;15.14;50.12
47763;BME280;33526;42.690;23.322;2023-04-22T08:50:12;94845.66;;;15.27;49.94
47763;BME280;33526;42.690;23.322;2023-04-22T08:52:37;94823.59;;;15.20;50.06
47763;BME280;33526;42.690;23.322;2023-04-22T08:55:03;94839.31;;;15.55;49.88
47763;BME280;33526;42.690;23.322;2023-04-22T08:57:30;94833.75;;;15.66;49.03
47763;BME280;33526;42.690;23.322;2023-04-22T08:59:56;94819.34;;;15.59;48.52
47763;BME280;33526;42.690;23.322;2023-04-22T09:02:23;94820.66;;;15.52;48.44
47763;BME280;33526;42.690;23.322;2023-04-22T09:04:50;94831.38;;;15.48;48.75
47763;BME280;33526;42.690;23.322;2023-04-22T09:07:23;94827.81;;;15.64;48.63
47763;BME280;33526;42.690;23.322;2023-04-22T09:09:49;94838.59;;;15.66;48.54
47763;BME280;33526;42.690;23.322;2023-04-22T09:12:15;94833.31;;;15.91;47.87
47763;BME280;33526;42.690;23.322;2023-04-22T09:14:43;94832.28;;;15.99;46.34
47763;BME280;33526;42.690;23.322;2023-04-22T09:17:09;94825.38;;;16.34;45.70
47763;BME280;33526;42.690;23.322;2023-04-22T09:19:35;94827.69;;;16.58;45.40
47763;BME280;33526;42.690;23.322;2023-04-22T09:22:00;94837.69;;;16.88;44.14
47763;BME280;33526;42.690;23.322;2023-04-22T09:24:26;94783.84;;;16.18;44.44
47763;BME280;33526;42.690;23.322;2023-04-22T09:26:54;94819.19;;;16.98;44.51
47763;BME280;33526;42.690;23.322;2023-04-22T09:29:20;94811.72;;;17.00;44.81
47763;BME280;33526;42.690;23.322;2023-04-22T09:31:49;94813.78;;;17.00;44.26
47763;BME280;33526;42.690;23.322;2023-04-22T09:34:15;94809.97;;;16.69;44.97
47763;BME280;33526;42.690;23.322;2023-04-22T09:36:42;94798.69;;;16.58;44.79
47763;BME280;33526;42.690;23.322;2023-04-22T09:39:08;94802.00;;;16.85;43.33
47763;BME280;33526;42.690;23.322;2023-04-22T09:41:38;94783.78;;;16.63;44.66
47763;BME280;33526;42.690;23.322;2023-04-22T09:44:08;94812.53;;;16.67;44.51
47763;BME280;33526;42.690;23.322;2023-04-22T09:46:34;94791.78;;;16.53;44.72
47763;BME280;33526;42.690;23.322;2023-04-22T09:49:00;94804.78;;;17.07;43.67
47763;BME280;33526;42.690;23.322;2023-04-22T09:51:27;94802.06;;;17.37;42.32
47763;BME280;33526;42.690;23.322;2023-04-22T09:54:19;94823.63;;;17.41;41.39
47763;BME280;33526;42.690;23.322;2023-04-22T09:56:49;94801.47;;;16.92;42.30
47763;BME280;33526;42.690;23.322;2023-04-22T09:59:35;94805.38;;;16.55;42.52
47763;BME280;33526;42.690;23.322;2023-04-22T10:02:01;94804.28;;;16.80;41.69
47763;BME280;33526;42.690;23.322;2023-04-22T10:04:31;94811.78;;;16.55;41.63
47763;BME280;33526;42.690;23.322;2023-04-22T10:06:56;94804.38;;;16.35;43.57
47763;BME280;33526;42.690;23.322;2023-04-22T10:09:23;94808.22;;;16.21;43.99
47763;BME280;33526;42.690;23.322;2023-04-22T10:11:51;94800.19;;;15.68;45.17
47763;BME280;33526;42.690;23.322;2023-04-22T10:14:20;94793.59;;;15.94;42.95
47763;BME280;33526;42.690;23.322;2023-04-22T10:16:46;94795.34;;;15.80;42.71
47763;BME280;33526;42.690;23.322;2023-04-22T10:19:20;94789.47;;;15.84;41.98
47763;BME280;33526;42.690;23.322;2023-04-22T10:21:48;94795.38;;;16.03;42.27
47763;BME280;33526;42.690;23.322;2023-04-22T10:24:16;94790.19;;;15.62;41.65
47763;BME280;33526;42.690;23.322;2023-04-22T10:26:58;94798.72;;;15.90;41.95
47763;BME280;33526;42.690;23.322;2023-04-22T10:29:38;94779.22;;;16.15;41.54
47763;BME280;33526;42.690;23.322;2023-04-22T10:34:36;94778.94;;;16.52;40.84
47763;BME280;33526;42.690;23.322;2023-04-22T10:37:06;94792.50;;;16.88;39.00
47763;BME280;33526;42.690;23.322;2023-04-22T10:39:32;94785.84;;;16.62;37.87
47763;BME280;33526;42.690;23.322;2023-04-22T10:42:13;94786.91;;;16.20;39.26
47763;BME280;33526;42.690;23.322;2023-04-22T10:50:14;94782.88;;;17.19;38.38
47763;BME280;33526;42.690;23.322;2023-04-22T10:52:41;94774.97;;;17.06;38.17
47763;BME280;33526;42.690;23.322;2023-04-22T10:55:07;94778.94;;;16.69;38.08
47763;BME280;33526;42.690;23.322;2023-04-22T10:57:38;94765.53;;;16.81;37.92
47763;BME280;33526;42.690;23.322;2023-04-22T11:00:24;94770.13;;;16.95;36.89
47763;BME280;33526;42.690;23.322;2023-04-22T11:05:23;94771.38;;;17.11;36.65
47763;BME280;33526;42.690;23.322;2023-04-22T11:07:52;94754.22;;;16.98;36.72
47763;BME280;33526;42.690;23.322;2023-04-22T11:10:41;94768.06;;;16.96;37.29
47763;BME280;33526;42.690;23.322;2023-04-22T11:13:18;94765.66;;;17.23;37.64
47763;BME280;33526;42.690;23.322;2023-04-22T11:15:49;94778.13;;;16.74;38.63
47763;BME280;33526;42.690;23.322;2023-04-22T11:18:20;94779.66;;;16.75;39.12
47763;BME280;33526;42.690;23.322;2023-04-22T11:20:46;94768.88;;;16.79;40.05
47763;BME280;33526;42.690;23.322;2023-04-22T11:23:21;94786.38;;;16.38;41.36
47763;BME280;33526;42.690;23.322;2023-04-22T11:25:47;94781.19;;;15.52;45.24
47763;BME280;33526;42.690;23.322;2023-04-22T11:28:12;94793.63;;;15.17;45.89
47763;BME280;33526;42.690;23.322;2023-04-22T11:30:38;94786.53;;;15.44;46.69
47763;BME280;33526;42.690;23.322;2023-04-22T11:33:03;94805.47;;;15.38;46.73
47763;BME280;33526;42.690;23.322;2023-04-22T11:35:31;94803.03;;;15.74;45.69
47763;BME280;33526;42.690;23.322;2023-04-22T11:40:33;94810.16;;;15.64;47.26
47763;BME280;33526;42.690;23.322;2023-04-22T11:43:00;94816.88;;;15.83;46.80
47763;BME280;33526;42.690;23.322;2023-04-22T11:45:28;94796.06;;;15.70;46.46
47763;BME280;33526;42.690;23.322;2023-04-22T11:47:54;94821.91;;;15.45;46.37
47763;BME280;33526;42.690;23.322;2023-04-22T11:50:25;94821.88;;;15.40;46.75
47763;BME280;33526;42.690;23.322;2023-04-22T11:55:24;94819.94;;;15.03;47.64
47763;BME280;33526;42.690;23.322;2023-04-22T11:58:00;94822.03;;;15.19;47.91
47763;BME280;33526;42.690;23.322;2023-04-22T12:00:34;94817.75;;;15.35;47.99
47763;BME280;33526;42.690;23.322;2023-04-22T12:05:35;94836.22;;;15.42;47.12
47763;BME280;33526;42.690;23.322;2023-04-22T12:08:02;94834.44;;;15.50;47.33
47763;BME280;33526;42.690;23.322;2023-04-22T12:10:28;94829.63;;;15.56;47.29
47763;BME280;33526;42.690;23.322;2023-04-22T12:12:54;94825.25;;;15.61;47.01
47763;BME280;33526;42.690;23.322;2023-04-22T12:15:19;94805.00;;;15.45;47.58
47763;BME280;33526;42.690;23.322;2023-04-22T12:17:44;94854.84;;;15.99;46.54
47763;BME280;33526;42.690;23.322;2023-04-22T12:20:11;94818.56;;;15.47;46.25
47763;BME280;33526;42.690;23.322;2023-04-22T12:22:37;94823.56;;;15.09;47.69
47763;BME280;33526;42.690;23.322;2023-04-22T12:25:03;94826.47;;;15.43;47.25
47763;BME280;33526;42.690;23.322;2023-04-22T12:27:28;94821.44;;;15.70;46.69
47763;BME280;33526;42.690;23.322;2023-04-22T12:29:56;94828.28;;;15.40;46.96
47763;BME280;33526;42.690;23.322;2023-04-22T12:32:23;94824.69;;;15.40;47.25
47763;BME280;33526;42.690;23.322;2023-04-22T12:34:49;94803.13;;;15.25;46.95
47763;BME280;33526;42.690;23.322;2023-04-22T12:37:15;94829.22;;;15.20;48.07
47763;BME280;33526;42.690;23.322;2023-04-22T12:39:42;94823.22;;;14.96;49.83
47763;BME280;33526;42.690;23.322;2023-04-22T12:42:08;94812.25;;;15.03;49.95
47763;BME280;33526;42.690;23.322;2023-04-22T12:44:33;94810.63;;;15.51;49.26
47763;BME280;33526;42.690;23.322;2023-04-22T12:46:59;94823.31;;;15.95;49.18
47763;BME280;33526;42.690;23.322;2023-04-22T12:49:25;94800.13;;;15.46;48.00
47763;BME280;33526;42.690;23.322;2023-04-22T12:51:50;94809.00;;;15.16;48.18
47763;BME280;33526;42.690;23.322;2023-04-22T12:54:17;94816.47;;;15.31;48.51
47763;BME280;33526;42.690;23.322;2023-04-22T12:56:45;94806.91;;;15.05;48.95
47763;BME280;33526;42.690;23.322;2023-04-22T12:59:11;94793.38;;;15.15;48.66
47763;BME280;33526;42.690;23.322;2023-04-22T13:01:37;94781.22;;;14.86;48.15
47763;BME280;33526;42.690;23.322;2023-04-22T13:04:03;94821.78;;;15.17;47.57
47763;BME280;33526;42.690;23.322;2023-04-22T13:06:28;94812.25;;;15.03;47.97